Time;durP1;ratioP1;P1;durP2;ratioP2;P2;SDS_P1;SDS_P2;PMS_P1;PMS_P2;Temp;Humidity;BMP_temperature;BMP_pressure;BME280_temperature;BME280_humidity;BME280_pressure;Samples;Min_cycle;Max_cycle;Signal;HPM_P1;HPM_P2
2023/08/15 00:02:30;;;;;;;4.93;4.50;;;;;;;;;;5001076;28;20104;-68
2023/08/15 00:05:11;;;;;;;4.55;4.15;;;;;;;;;;4977802;28;20046;-68
2023/08/15 00:08:06;;;;;;;6.05;4.63;;;;;;;;;;4952110;28;20047;-68
2023/08/15 00:10:37;;;;;;;6.35;4.43;;;;;;;;;;4950146;28;20051;-68
2023/08/15 00:13:04;;;;;;;6.20;4.60;;;;;;;;;;4945730;28;21079;-68
2023/08/15 00:15:37;;;;;;;7.03;4.57;;;;;;;;;;4955756;28;20047;-68
2023/08/15 00:18:12;;;;;;;5.63;4.57;;;;;;;;;;4929885;28;20159;-69
2023/08/15 00:20:38;;;;;;;5.32;4.60;;;;;;;;;;4899534;29;20047;-68
2023/08/15 00:23:09;;;;;;;4.47;4.05;;;;;;;;;;4921721;28;20126;-68
2023/08/15 00:25:44;;;;;;;8.15;4.80;;;;;;;;;;4903265;29;20073;-68
2023/08/15 00:28:14;;;;;;;5.75;5.15;;;;;;;;;;4918254;28;20077;-69
2023/08/15 00:30:46;;;;;;;6.07;5.45;;;;;;;;;;4891966;29;20050;-67
2023/08/15 00:33:14;;;;;;;8.25;5.80;;;;;;;;;;4925180;28;20048;-70
2023/08/15 00:35:50;;;;;;;7.40;5.03;;;;;;;;;;4945071;28;20052;-68
2023/08/15 00:38:21;;;;;;;5.90;5.15;;;;;;;;;;4919933;28;20079;-68
2023/08/15 00:40:50;;;;;;;5.37;4.87;;;;;;;;;;4900763;29;20047;-69
2023/08/15 00:43:19;;;;;;;5.50;4.60;;;;;;;;;;4923070;28;20721;-69
2023/08/15 00:45:54;;;;;;;5.72;5.18;;;;;;;;;;4913345;29;20047;-69
2023/08/15 00:48:29;;;;;;;5.22;4.72;;;;;;;;;;4905811;28;20079;-69
2023/08/15 00:51:01;;;;;;;6.95;4.80;;;;;;;;;;4928020;28;20457;-69
2023/08/15 00:53:32;;;;;;;7.57;5.53;;;;;;;;;;4912279;29;20044;-69
2023/08/15 00:56:17;;;;;;;8.10;4.65;;;;;;;;;;4925241;28;20051;-69
2023/08/15 00:58:52;;;;;;;6.68;5.40;;;;;;;;;;4909303;29;20405;-70
2023/08/15 01:01:25;;;;;;;5.63;5.13;;;;;;;;;;4918840;29;20144;-68
2023/08/15 01:03:54;;;;;;;;;;;;;;;;;;4985979;28;21127;-68
2023/08/15 01:06:25;;;;;;;5.45;4.95;;;;;;;;;;4978035;28;19921;-69
2023/08/15 01:08:55;;;;;;;8.32;5.50;;;;;;;;;;5008856;28;20143;-68
2023/08/15 01:11:30;;;;;;;6.63;5.57;;;;;;;;;;4965287;28;20046;-67
2023/08/15 01:14:17;;;;;;;8.40;6.13;;;;;;;;;;4912354;29;20122;-68
2023/08/15 01:16:53;;;;;;;6.82;5.90;;;;;;;;;;4950520;28;20047;-68
2023/08/15 01:19:42;;;;;;;6.20;5.60;;;;;;;;;;4945448;28;20464;-68
2023/08/15 01:22:49;;;;;;;7.22;6.00;;;;;;;;;;4924386;28;20086;-68
2023/08/15 01:25:18;;;;;;;9.20;6.20;;;;;;;;;;4935074;28;20046;-69
2023/08/15 01:27:49;;;;;;;7.97;6.10;;;;;;;;;;4939076;28;20046;-69
2023/08/15 01:30:27;;;;;;;7.00;6.30;;;;;;;;;;4892294;28;20079;-68
2023/08/15 01:33:15;;;;;;;6.47;5.75;;;;;;;;;;4901876;29;20048;-69
2023/08/15 01:35:49;;;;;;;6.63;5.93;;;;;;;;;;4888745;29;20573;-68
2023/08/15 01:38:26;;;;;;;7.10;5.82;;;;;;;;;;4947198;28;20053;-69
2023/08/15 01:41:31;;;;;;;6.22;5.25;;;;;;;;;;4984745;28;20102;-69
2023/08/15 01:44:00;;;;;;;7.97;5.38;;;;;;;;;;4969712;28;20085;-68
2023/08/15 01:46:32;;;;;;;6.47;5.40;;;;;;;;;;4966431;28;20042;-68
2023/08/15 01:49:03;;;;;;;7.05;5.90;;;;;;;;;;4958818;28;20666;-70
2023/08/15 01:51:34;;;;;;;6.57;5.97;;;;;;;;;;4979618;28;20049;-70
2023/08/15 01:54:12;;;;;;;6.93;6.00;;;;;;;;;;4964995;28;20251;-68
2023/08/15 01:56:48;;;;;;;6.00;5.15;;;;;;;;;;4959690;28;20801;-68
2023/08/15 01:59:17;;;;;;;7.55;6.70;;;;;;;;;;4942440;28;20062;-68
2023/08/15 02:01:44;;;;;;;7.75;5.57;;;;;;;;;;4959695;28;20082;-68
2023/08/15 02:04:13;;;;;;;6.00;5.05;;;;;;;;;;4960530;28;20049;-69
2023/08/15 02:06:42;;;;;;;12.50;5.43;;;;;;;;;;4937744;28;20058;-68
2023/08/15 02:09:10;;;;;;;5.88;5.28;;;;;;;;;;4934407;28;20051;-68
2023/08/15 02:11:36;;;;;;;6.18;5.55;;;;;;;;;;4946385;28;20127;-67
2023/08/15 02:14:08;;;;;;;5.78;4.82;;;;;;;;;;4930920;28;20078;-67
2023/08/15 02:16:35;;;;;;;6.15;5.25;;;;;;;;;;4918766;28;20105;-67
2023/08/15 02:19:04;;;;;;;5.47;4.85;;;;;;;;;;4908506;29;20055;-68
2023/08/15 02:21:31;;;;;;;8.77;6.13;;;;;;;;;;4859306;29;20054;-68
2023/08/15 02:24:00;;;;;;;7.03;6.07;;;;;;;;;;4808223;29;20041;-69
2023/08/15 02:26:35;;;;;;;6.28;5.68;;;;;;;;;;4792480;29;20068;-68
2023/08/15 02:29:17;;;;;;;5.97;5.18;;;;;;;;;;4808942;29;20063;-68
2023/08/15 02:31:54;;;;;;;7.47;5.28;;;;;;;;;;4817887;29;20053;-68
2023/08/15 02:34:36;;;;;;;;;;;;;;;;;;;;;
2023/08/15 02:37:06;;;;;;;6.05;4.85;;;;;;;;;;4851113;29;20136;-69
2023/08/15 02:39:44;;;;;;;5.22;4.72;;;;;;;;;;4869619;29;20503;-67
2023/08/15 02:42:21;;;;;;;7.55;4.78;;;;;;;;;;4864988;29;20057;-69
2023/08/15 02:44:53;;;;;;;5.43;4.90;;;;;;;;;;4926314;28;20046;-68
2023/08/15 02:47:22;;;;;;;5.65;4.72;;;;;;;;;;4976814;28;20049;-68
2023/08/15 02:49:58;;;;;;;5.65;4.50;;;;;;;;;;5003492;28;20123;-69
2023/08/15 02:52:34;;;;;;;6.23;5.57;;;;;;;;;;5009463;28;20042;-68
2023/08/15 02:55:09;;;;;;;7.45;5.22;;;;;;;;;;4988133;28;21109;-69
2023/08/15 02:57:46;;;;;;;7.20;5.03;;;;;;;;;;4978807;28;20503;-68
2023/08/15 03:00:20;;;;;;;5.85;4.97;;;;;;;;;;5001896;28;20041;-72
2023/08/15 03:02:54;;;;;;;5.57;4.97;;;;;;;;;;4993160;28;20057;-68
2023/08/15 03:05:26;;;;;;;6.63;4.88;;;;;;;;;;5003919;28;20046;-69
2023/08/15 03:07:54;;;;;;;;;;;;;;;;;;5001673;28;20049;-68
2023/08/15 03:10:20;;;;;;;9.82;5.03;;;;;;;;;;5005661;28;20301;-69
2023/08/15 03:12:49;;;;;;;5.05;4.55;;;;;;;;;;4990079;28;20939;-69
2023/08/15 03:15:18;;;;;;;6.43;5.53;;;;;;;;;;5006709;28;20124;-69
2023/08/15 03:17:51;;;;;;;6.45;5.85;;;;;;;;;;5009965;28;20048;-68
2023/08/15 03:20:29;;;;;;;7.93;5.78;;;;;;;;;;5004090;28;20057;-69
2023/08/15 03:22:58;;;;;;;7.65;5.38;;;;;;;;;;5008916;28;20049;-69
2023/08/15 03:25:24;;;;;;;7.00;5.78;;;;;;;;;;4992221;28;20568;-69
2023/08/15 03:27:55;;;;;;;6.85;5.45;;;;;;;;;;5008337;28;20569;-69
2023/08/15 03:30:25;;;;;;;8.27;5.50;;;;;;;;;;5005013;28;20098;-69
2023/08/15 03:32:54;;;;;;;6.25;5.65;;;;;;;;;;5038570;28;20045;-68
2023/08/15 03:35:29;;;;;;;6.07;5.45;;;;;;;;;;5010209;28;20060;-69
2023/08/15 03:37:59;;;;;;;5.75;4.82;;;;;;;;;;5021891;28;20032;-69
2023/08/15 03:40:28;;;;;;;8.93;5.13;;;;;;;;;;5027534;28;20057;-70
2023/08/15 03:42:57;;;;;;;6.07;5.35;;;;;;;;;;5020291;28;20041;-68
2023/08/15 03:45:23;;;;;;;7.82;5.47;;;;;;;;;;5040078;28;20523;-68
2023/08/15 03:47:59;;;;;;;6.30;5.70;;;;;;;;;;5013666;28;20041;-68
2023/08/15 03:50:38;;;;;;;10.65;5.28;;;;;;;;;;4971971;28;20449;-68
2023/08/15 03:53:30;;;;;;;5.50;4.97;;;;;;;;;;4994824;28;20462;-68
2023/08/15 03:56:00;;;;;;;9.27;5.75;;;;;;;;;;4990124;28;20041;-68
2023/08/15 03:58:31;;;;;;;5.75;5.10;;;;;;;;;;4981287;28;20219;-68
2023/08/15 04:01:08;;;;;;;5.63;4.80;;;;;;;;;;4999408;28;21065;-68
2023/08/15 04:03:44;;;;;;;6.28;5.68;;;;;;;;;;4993872;28;20141;-68
2023/08/15 04:06:12;;;;;;;9.57;6.25;;;;;;;;;;4982895;28;20143;-71
2023/08/15 04:08:46;;;;;;;6.22;5.63;;;;;;;;;;4978785;28;20050;-71
2023/08/15 04:11:22;;;;;;;5.80;5.20;;;;;;;;;;4989128;28;20041;-69
2023/08/15 04:13:56;;;;;;;6.13;4.90;;;;;;;;;;4954166;28;20039;-69
2023/08/15 04:16:28;;;;;;;5.40;4.90;;;;;;;;;;4957469;28;20178;-69
2023/08/15 04:19:00;;;;;;;7.97;5.00;;;;;;;;;;4941878;28;20785;-69
2023/08/15 04:21:37;;;;;;;5.97;5.40;;;;;;;;;;4936297;28;20086;-69
2023/08/15 04:24:06;;;;;;;6.28;5.55;;;;;;;;;;4965325;28;20038;-69
2023/08/15 04:26:34;;;;;;;6.35;4.78;;;;;;;;;;4957729;28;20522;-69
2023/08/15 04:29:13;;;;;;;5.45;4.82;;;;;;;;;;4926181;28;20173;-69
2023/08/15 04:31:48;;;;;;;8.90;5.22;;;;;;;;;;4928679;28;20186;-69
2023/08/15 04:34:16;;;;;;;5.40;4.90;;;;;;;;;;4945226;28;20137;-68
2023/08/15 04:36:48;;;;;;;6.05;4.85;;;;;;;;;;4955660;28;20047;-69
2023/08/15 04:39:30;;;;;;;5.65;5.00;;;;;;;;;;4956474;28;20101;-69
2023/08/15 04:42:00;;;;;;;6.47;5.03;;;;;;;;;;4966901;28;20049;-69
2023/08/15 04:44:28;;;;;;;5.75;4.95;;;;;;;;;;4966588;28;20046;-68
2023/08/15 04:47:07;;;;;;;7.88;4.53;;;;;;;;;;5010128;28;20061;-69
2023/08/15 04:49:50;;;;;;;6.88;4.75;;;;;;;;;;4983600;28;20129;-69
2023/08/15 04:52:39;;;;;;;6.80;4.55;;;;;;;;;;4975742;28;20044;-68
2023/08/15 04:55:24;;;;;;;7.03;4.60;;;;;;;;;;4994890;28;20057;-67
2023/08/15 04:58:09;;;;;;;5.85;5.07;;;;;;;;;;4990735;28;20084;-67
2023/08/15 05:01:12;;;;;;;6.10;5.20;;;;;;;;;;5008098;28;20262;-69
2023/08/15 05:03:48;;;;;;;6.88;4.78;;;;;;;;;;5013646;28;20949;-69
2023/08/15 05:06:25;;;;;;;6.85;4.90;;;;;;;;;;4989027;28;20112;-69
2023/08/15 05:09:07;;;;;;;5.78;4.93;;;;;;;;;;4992003;28;20447;-69
2023/08/15 05:11:46;;;;;;;6.57;5.18;;;;;;;;;;4995644;28;20107;-69
2023/08/15 05:14:23;;;;;;;5.60;5.00;;;;;;;;;;4980124;28;20050;-70
2023/08/15 05:16:50;;;;;;;8.13;4.80;;;;;;;;;;4971948;28;20119;-69
2023/08/15 05:19:24;;;;;;;4.55;4.15;;;;;;;;;;4973202;28;20516;-70
2023/08/15 05:22:09;;;;;;;7.32;4.47;;;;;;;;;;4959970;28;20051;-69
2023/08/15 05:24:34;;;;;;;9.95;4.28;;;;;;;;;;4969230;28;20538;-69
2023/08/15 05:27:00;;;;;;;4.47;4.05;;;;;;;;;;4967538;28;20617;-69
2023/08/15 05:29:26;;;;;;;4.70;3.97;;;;;;;;;;4970046;28;20151;-68
2023/08/15 05:31:51;;;;;;;4.95;3.90;;;;;;;;;;4963665;28;20049;-69
2023/08/15 05:34:17;;;;;;;5.03;4.18;;;;;;;;;;4979072;28;20058;-69
2023/08/15 05:36:42;;;;;;;3.72;3.42;;;;;;;;;;4963729;28;20058;-68
2023/08/15 05:39:08;;;;;;;4.18;3.53;;;;;;;;;;4963126;28;20085;-70
2023/08/15 05:41:34;;;;;;;3.70;3.40;;;;;;;;;;4961927;28;20074;-70
2023/08/15 05:44:00;;;;;;;4.78;3.30;;;;;;;;;;4978350;28;20086;-70
2023/08/15 05:46:25;;;;;;;4.22;3.38;;;;;;;;;;4994298;28;20439;-70
2023/08/15 05:48:51;;;;;;;4.32;3.70;;;;;;;;;;5001752;28;20060;-70
2023/08/15 05:51:16;;;;;;;4.88;3.40;;;;;;;;;;5000692;28;20147;-70
2023/08/15 05:53:42;;;;;;;4.82;3.25;;;;;;;;;;5001860;28;20133;-70
2023/08/15 05:56:07;;;;;;;4.07;3.10;;;;;;;;;;5001792;28;20478;-71
2023/08/15 05:58:33;;;;;;;3.30;2.80;;;;;;;;;;5001301;28;20836;-70
2023/08/15 06:00:58;;;;;;;3.60;3.30;;;;;;;;;;5002707;28;20083;-70
2023/08/15 06:03:24;;;;;;;3.17;2.88;;;;;;;;;;5002176;28;20073;-70
2023/08/15 06:05:49;;;;;;;3.03;2.83;;;;;;;;;;4999524;28;20046;-71
2023/08/15 06:08:15;;;;;;;3.03;2.72;;;;;;;;;;5005301;28;20137;-69
2023/08/15 06:10:40;;;;;;;4.75;2.92;;;;;;;;;;5002565;28;20080;-69
2023/08/15 06:13:06;;;;;;;8.40;2.83;;;;;;;;;;5010369;28;20046;-70
2023/08/15 06:15:31;;;;;;;3.10;2.90;;;;;;;;;;5003685;28;20041;-70
2023/08/15 06:17:57;;;;;;;3.05;2.78;;;;;;;;;;5000744;28;20482;-69
2023/08/15 06:20:22;;;;;;;3.10;2.80;;;;;;;;;;4998481;28;20138;-70
2023/08/15 06:22:48;;;;;;;5.30;2.70;;;;;;;;;;5000935;28;20050;-70
2023/08/15 06:25:13;;;;;;;4.38;2.90;;;;;;;;;;4999421;28;20065;-70
2023/08/15 06:27:39;;;;;;;3.67;2.63;;;;;;;;;;5000009;28;20080;-70
2023/08/15 06:30:05;;;;;;;2.90;2.60;;;;;;;;;;4997747;28;20103;-70
2023/08/15 06:32:32;;;;;;;4.88;2.40;;;;;;;;;;4998148;28;20060;-70
2023/08/15 06:34:57;;;;;;;3.35;2.53;;;;;;;;;;5003379;28;20095;-70
2023/08/15 06:37:23;;;;;;;2.65;2.45;;;;;;;;;;5003886;28;20041;-70
2023/08/15 06:39:49;;;;;;;2.38;2.17;;;;;;;;;;5001684;28;20455;-70
2023/08/15 06:42:14;;;;;;;2.85;2.65;;;;;;;;;;4997969;28;20141;-71
2023/08/15 06:44:43;;;;;;;3.42;2.67;;;;;;;;;;4999914;28;20053;-71
2023/08/15 06:47:09;;;;;;;2.65;2.45;;;;;;;;;;4998909;28;20041;-70
2023/08/15 06:49:34;;;;;;;6.03;2.47;;;;;;;;;;4999828;28;20049;-70
2023/08/15 06:52:00;;;;;;;2.83;2.35;;;;;;;;;;4998028;28;20049;-70
2023/08/15 06:54:25;;;;;;;3.15;2.42;;;;;;;;;;4999755;28;20419;-70
2023/08/15 06:56:51;;;;;;;3.05;2.50;;;;;;;;;;5001976;28;20487;-70
2023/08/15 06:59:16;;;;;;;4.03;2.50;;;;;;;;;;5002972;28;20813;-70
2023/08/15 07:01:41;;;;;;;6.93;2.50;;;;;;;;;;4999105;28;20045;-70
2023/08/15 07:04:07;;;;;;;4.25;2.78;;;;;;;;;;5001232;28;20045;-70
2023/08/15 07:06:32;;;;;;;2.70;2.50;;;;;;;;;;4998773;28;20119;-70
2023/08/15 07:08:59;;;;;;;3.17;2.60;;;;;;;;;;4999201;28;20529;-70
2023/08/15 07:11:24;;;;;;;2.70;2.50;;;;;;;;;;5004691;28;20033;-70
2023/08/15 07:13:50;;;;;;;2.67;2.42;;;;;;;;;;5002587;28;20388;-71
2023/08/15 07:16:16;;;;;;;5.30;2.90;;;;;;;;;;5000768;28;20414;-70
2023/08/15 07:18:41;;;;;;;6.55;2.08;;;;;;;;;;5004847;28;21156;-69
2023/08/15 07:21:07;;;;;;;2.60;2.40;;;;;;;;;;5005440;28;20084;-68
2023/08/15 07:23:32;;;;;;;2.63;2.42;;;;;;;;;;5001446;28;20041;-68
2023/08/15 07:25:57;;;;;;;2.40;2.20;;;;;;;;;;5002448;28;20490;-68
2023/08/15 07:28:23;;;;;;;2.60;2.15;;;;;;;;;;5001907;28;20482;-68
2023/08/15 07:30:48;;;;;;;3.05;2.60;;;;;;;;;;4999415;28;20057;-68
2023/08/15 07:33:15;;;;;;;2.97;2.30;;;;;;;;;;5000412;28;20060;-69
2023/08/15 07:35:41;;;;;;;2.50;2.30;;;;;;;;;;5002679;28;20459;-69
2023/08/15 07:38:07;;;;;;;3.05;2.20;;;;;;;;;;5001814;28;20492;-69
2023/08/15 07:40:32;;;;;;;4.15;2.30;;;;;;;;;;5004623;28;20095;-69
2023/08/15 07:42:58;;;;;;;2.20;2.05;;;;;;;;;;5003732;28;20949;-69
2023/08/15 07:45:23;;;;;;;3.05;2.58;;;;;;;;;;5009910;28;20146;-69
2023/08/15 07:47:52;;;;;;;5.13;2.30;;;;;;;;;;5003609;28;20042;-69
2023/08/15 07:50:22;;;;;;;4.38;2.30;;;;;;;;;;5011582;28;20046;-69
2023/08/15 07:52:49;;;;;;;2.70;2.50;;;;;;;;;;5002785;28;20127;-70
2023/08/15 07:55:14;;;;;;;2.90;2.33;;;;;;;;;;5002982;28;20057;-69
2023/08/15 07:57:40;;;;;;;2.50;2.30;;;;;;;;;;5008650;28;20048;-70
2023/08/15 08:00:08;;;;;;;3.67;2.70;;;;;;;;;;5010326;28;20041;-69
2023/08/15 08:02:46;;;;;;;2.38;2.10;;;;;;;;;;5024055;28;20585;-69
2023/08/15 08:05:15;;;;;;;5.03;2.15;;;;;;;;;;5014345;28;20054;-69
2023/08/15 08:07:42;;;;;;;3.22;2.50;;;;;;;;;;5011318;28;20049;-69
2023/08/15 08:10:08;;;;;;;5.07;2.40;;;;;;;;;;4999997;28;20222;-69
2023/08/15 08:12:34;;;;;;;2.42;2.20;;;;;;;;;;5002649;28;20100;-69
2023/08/15 08:15:00;;;;;;;2.28;2.17;;;;;;;;;;5006461;28;20048;-69
2023/08/15 08:17:26;;;;;;;2.60;2.40;;;;;;;;;;5007831;28;20050;-70
2023/08/15 08:19:52;;;;;;;2.20;2.10;;;;;;;;;;5006175;28;20085;-70
2023/08/15 08:22:18;;;;;;;5.28;2.25;;;;;;;;;;5009803;28;20617;-70
2023/08/15 08:24:43;;;;;;;2.30;2.10;;;;;;;;;;5006342;28;20047;-70
2023/08/15 08:27:09;;;;;;;3.25;2.15;;;;;;;;;;5010715;28;20130;-70
2023/08/15 08:29:34;;;;;;;2.53;2.33;;;;;;;;;;5007822;28;20081;-70
2023/08/15 08:32:00;;;;;;;2.85;2.53;;;;;;;;;;5007849;28;20871;-72
2023/08/15 08:34:26;;;;;;;2.67;2.40;;;;;;;;;;4999901;28;20164;-71
2023/08/15 08:36:51;;;;;;;2.80;2.50;;;;;;;;;;5010080;28;20108;-71
2023/08/15 08:39:16;;;;;;;5.28;2.35;;;;;;;;;;5000412;28;20060;-71
2023/08/15 08:41:42;;;;;;;3.78;2.33;;;;;;;;;;5005604;28;20430;-72
2023/08/15 08:44:11;;;;;;;2.10;1.88;;;;;;;;;;5001132;28;20045;-71
2023/08/15 08:46:37;;;;;;;3.03;2.28;;;;;;;;;;5006921;28;20053;-73
2023/08/15 08:49:03;;;;;;;2.42;2.22;;;;;;;;;;5006217;28;20065;-72
2023/08/15 08:51:31;;;;;;;4.82;2.22;;;;;;;;;;5001417;28;20045;-72
2023/08/15 08:53:57;;;;;;;2.58;2.13;;;;;;;;;;5004648;28;20099;-72
2023/08/15 08:56:24;;;;;;;2.53;1.83;;;;;;;;;;4990158;28;20049;-71
2023/08/15 08:58:57;;;;;;;4.28;2.88;;;;;;;;;;5001807;28;20080;-72
2023/08/15 09:01:23;;;;;;;2.75;1.83;;;;;;;;;;5005101;28;20152;-71
2023/08/15 09:03:48;;;;;;;3.03;2.30;;;;;;;;;;5003224;28;20133;-71
2023/08/15 09:06:14;;;;;;;5.10;2.40;;;;;;;;;;5003905;28;20045;-72
2023/08/15 09:08:40;;;;;;;2.92;2.25;;;;;;;;;;5002979;28;20053;-72
2023/08/15 09:11:05;;;;;;;3.03;2.40;;;;;;;;;;5008679;28;20525;-72
2023/08/15 09:13:31;;;;;;;2.30;2.10;;;;;;;;;;5003383;28;21067;-71
2023/08/15 09:15:58;;;;;;;3.15;2.20;;;;;;;;;;5000958;28;20069;-72
2023/08/15 09:18:26;;;;;;;3.35;2.20;;;;;;;;;;5008711;28;20092;-71
2023/08/15 09:20:52;;;;;;;2.22;2.05;;;;;;;;;;5018713;28;20104;-70
2023/08/15 09:23:17;;;;;;;2.78;2.58;;;;;;;;;;5009474;28;20080;-71
2023/08/15 09:25:43;;;;;;;2.63;2.20;;;;;;;;;;5011254;28;20041;-70
2023/08/15 09:28:09;;;;;;;2.95;2.30;;;;;;;;;;5007133;28;20115;-70
2023/08/15 09:30:34;;;;;;;3.92;2.35;;;;;;;;;;5008549;28;20543;-70
2023/08/15 09:33:04;;;;;;;2.22;2.03;;;;;;;;;;5011035;28;20124;-70
2023/08/15 09:35:30;;;;;;;;;;;;;;;;;;5009044;28;20041;-71
2023/08/15 09:37:56;;;;;;;2.65;2.25;;;;;;;;;;5003436;28;19955;-71
2023/08/15 09:40:23;;;;;;;1.95;1.85;;;;;;;;;;5001266;28;20056;-71
2023/08/15 09:42:48;;;;;;;3.67;2.30;;;;;;;;;;5002451;28;20156;-71
2023/08/15 09:45:15;;;;;;;2.47;1.85;;;;;;;;;;5004729;28;20201;-71
2023/08/15 09:47:42;;;;;;;4.85;2.30;;;;;;;;;;5000593;28;20457;-71
2023/08/15 09:50:09;;;;;;;2.45;2.15;;;;;;;;;;5014921;28;20050;-71
2023/08/15 09:52:39;;;;;;;3.78;2.28;;;;;;;;;;5010553;28;20050;-70
2023/08/15 09:55:11;;;;;;;2.40;2.20;;;;;;;;;;5010299;28;20127;-71
2023/08/15 09:57:38;;;;;;;2.50;2.28;;;;;;;;;;5011871;28;20045;-70
2023/08/15 10:00:05;;;;;;;2.30;2.10;;;;;;;;;;5013579;28;20121;-71
2023/08/15 10:02:48;;;;;;;2.38;2.15;;;;;;;;;;5010270;28;20085;-71
2023/08/15 10:05:18;;;;;;;3.65;2.15;;;;;;;;;;5007707;28;20053;-71
2023/08/15 10:07:45;;;;;;;2.72;2.53;;;;;;;;;;5013492;28;20061;-71
2023/08/15 10:10:11;;;;;;;2.97;2.30;;;;;;;;;;5009811;28;20165;-69
2023/08/15 10:12:40;;;;;;;2.53;2.33;;;;;;;;;;5009557;28;20221;-70
2023/08/15 10:15:07;;;;;;;5.72;2.63;;;;;;;;;;5008047;28;20049;-70
2023/08/15 10:17:33;;;;;;;2.90;2.35;;;;;;;;;;5010810;28;20091;-72
2023/08/15 10:20:13;;;;;;;2.50;2.30;;;;;;;;;;5006524;28;20050;-71
2023/08/15 10:22:39;;;;;;;2.63;2.42;;;;;;;;;;5007595;28;20469;-72
2023/08/15 10:25:23;;;;;;;4.00;2.42;;;;;;;;;;5006820;28;20045;-72
2023/08/15 10:27:53;;;;;;;2.33;2.13;;;;;;;;;;5008504;28;20099;-72
2023/08/15 10:30:34;;;;;;;6.20;3.15;;;;;;;;;;5006408;28;20154;-72
2023/08/15 10:33:11;;;;;;;4.57;2.92;;;;;;;;;;5014063;28;20053;-72
2023/08/15 10:35:36;;;;;;;2.80;2.45;;;;;;;;;;5004200;28;20459;-71
2023/08/15 10:38:13;;;;;;;3.92;2.50;;;;;;;;;;5001724;28;20507;-71
2023/08/15 10:40:41;;;;;;;2.42;2.22;;;;;;;;;;5001228;28;20144;-72
2023/08/15 10:43:11;;;;;;;4.28;2.22;;;;;;;;;;5002639;28;20042;-72
2023/08/15 10:45:50;;;;;;;2.40;2.15;;;;;;;;;;5004800;28;20052;-71
2023/08/15 10:48:41;;;;;;;2.55;2.35;;;;;;;;;;5003048;28;20049;-70
2023/08/15 10:51:35;;;;;;;2.42;2.22;;;;;;;;;;5006906;28;20049;-69
2023/08/15 10:54:21;;;;;;;5.78;2.25;;;;;;;;;;5006678;28;20049;-69
2023/08/15 10:56:47;;;;;;;2.60;2.40;;;;;;;;;;5006436;28;20076;-71
2023/08/15 10:59:14;;;;;;;4.28;2.60;;;;;;;;;;5011253;28;20073;-71
2023/08/15 11:01:42;;;;;;;2.78;2.58;;;;;;;;;;5010050;28;20069;-71
2023/08/15 11:04:13;;;;;;;3.15;2.60;;;;;;;;;;5012292;28;20045;-71
2023/08/15 11:06:49;;;;;;;2.42;2.22;;;;;;;;;;5009235;28;20119;-71
2023/08/15 11:09:15;;;;;;;2.75;2.55;;;;;;;;;;5010899;28;20088;-71
2023/08/15 11:11:41;;;;;;;5.82;2.45;;;;;;;;;;5008393;28;20104;-71
2023/08/15 11:14:19;;;;;;;4.53;2.70;;;;;;;;;;5007990;28;20045;-71
2023/08/15 11:16:46;;;;;;;2.42;2.25;;;;;;;;;;5018485;28;20054;-69
2023/08/15 11:19:19;;;;;;;4.43;2.50;;;;;;;;;;5010430;28;20107;-71
2023/08/15 11:21:47;;;;;;;3.83;2.67;;;;;;;;;;5007034;28;20064;-70
2023/08/15 11:24:12;;;;;;;5.10;2.22;;;;;;;;;;5012302;28;20507;-70
2023/08/15 11:26:40;;;;;;;3.80;2.75;;;;;;;;;;5008288;28;20066;-71
2023/08/15 11:29:08;;;;;;;3.25;2.20;;;;;;;;;;5011846;28;20120;-71
2023/08/15 11:31:33;;;;;;;3.60;2.28;;;;;;;;;;5012579;28;20055;-71
2023/08/15 11:34:00;;;;;;;2.42;2.22;;;;;;;;;;5011795;28;20041;-71
2023/08/15 11:36:25;;;;;;;2.85;2.47;;;;;;;;;;5010804;28;20994;-71
2023/08/15 11:38:51;;;;;;;2.63;2.42;;;;;;;;;;5011836;28;21079;-70
2023/08/15 11:41:17;;;;;;;3.38;2.50;;;;;;;;;;5011671;28;20042;-69
2023/08/15 11:43:44;;;;;;;2.50;2.30;;;;;;;;;;5008185;28;20562;-71
2023/08/15 11:46:10;;;;;;;2.70;2.50;;;;;;;;;;5005818;28;20045;-70
2023/08/15 11:48:36;;;;;;;2.85;2.63;;;;;;;;;;5003921;28;20065;-70
2023/08/15 11:51:02;;;;;;;3.17;2.70;;;;;;;;;;5008026;28;20053;-70
2023/08/15 11:53:28;;;;;;;2.88;2.40;;;;;;;;;;5006618;28;20041;-72
2023/08/15 11:55:53;;;;;;;3.20;2.80;;;;;;;;;;5009491;28;20056;-72
2023/08/15 11:58:30;;;;;;;3.17;2.58;;;;;;;;;;5007326;28;20038;-73
2023/08/15 12:01:07;;;;;;;3.55;2.75;;;;;;;;;;5006749;28;20045;-71
2023/08/15 12:03:34;;;;;;;3.42;2.63;;;;;;;;;;5008604;28;20392;-71
2023/08/15 12:06:04;;;;;;;3.53;3.22;;;;;;;;;;5006200;28;20034;-73
2023/08/15 12:08:30;;;;;;;3.60;2.92;;;;;;;;;;4998912;28;20506;-72
2023/08/15 12:10:58;;;;;;;4.55;2.55;;;;;;;;;;4995572;28;20123;-71
2023/08/15 12:13:30;;;;;;;3.05;2.60;;;;;;;;;;4994842;28;20821;-72
2023/08/15 12:15:55;;;;;;;3.28;2.97;;;;;;;;;;4998221;28;20065;-74
2023/08/15 12:18:21;;;;;;;3.50;2.50;;;;;;;;;;4997708;28;20042;-71
2023/08/15 12:20:47;;;;;;;3.72;2.85;;;;;;;;;;4995035;28;20344;-71
2023/08/15 12:23:12;;;;;;;3.60;2.65;;;;;;;;;;4997315;28;20046;-71
2023/08/15 12:25:38;;;;;;;3.35;2.70;;;;;;;;;;4999057;28;20065;-74
2023/08/15 12:28:04;;;;;;;3.10;2.90;;;;;;;;;;4996396;28;20377;-73
2023/08/15 12:30:30;;;;;;;2.63;2.40;;;;;;;;;;4998335;28;20453;-73
2023/08/15 12:32:55;;;;;;;4.10;2.70;;;;;;;;;;4998515;28;20053;-73
2023/08/15 12:35:21;;;;;;;2.85;2.60;;;;;;;;;;4997955;28;20145;-74
2023/08/15 12:37:46;;;;;;;2.75;2.40;;;;;;;;;;4997635;28;20046;-73
2023/08/15 12:40:12;;;;;;;3.13;2.83;;;;;;;;;;4997649;28;20041;-74
2023/08/15 12:42:37;;;;;;;2.70;2.50;;;;;;;;;;4997257;28;20057;-74
2023/08/15 12:45:03;;;;;;;2.95;2.75;;;;;;;;;;4998576;28;21089;-74
2023/08/15 12:47:29;;;;;;;2.60;2.40;;;;;;;;;;4998124;28;20041;-71
2023/08/15 12:49:55;;;;;;;3.45;2.70;;;;;;;;;;4997256;28;20048;-72
2023/08/15 15:41:49;;;;;;;5.00;4.13;;;;;;;;;;5033031;28;20149;-69
2023/08/15 15:44:14;;;;;;;7.18;4.47;;;;;;;;;;5043878;28;20124;-71
2023/08/15 15:46:39;;;;;;;5.47;3.67;;;;;;;;;;5026766;28;20501;-69
2023/08/15 15:49:05;;;;;;;7.30;3.63;;;;;;;;;;5035677;28;20049;-70
2023/08/15 15:51:30;;;;;;;6.40;3.75;;;;;;;;;;5020354;28;20113;-71
2023/08/15 15:53:56;;;;;;;7.13;3.90;;;;;;;;;;5019485;28;20098;-69
2023/08/15 15:56:21;;;;;;;4.85;3.53;;;;;;;;;;5016726;28;20153;-71
2023/08/15 15:58:47;;;;;;;4.47;3.92;;;;;;;;;;5034524;28;20128;-70
2023/08/15 16:01:13;;;;;;;9.20;4.50;;;;;;;;;;5017467;28;20513;-71
2023/08/15 16:03:38;;;;;;;4.88;4.07;;;;;;;;;;5035918;28;20669;-70
2023/08/15 16:06:04;;;;;;;6.43;4.05;;;;;;;;;;5018868;28;20644;-70
2023/08/15 16:08:30;;;;;;;7.95;4.32;;;;;;;;;;5036347;28;20071;-69
2023/08/15 16:10:55;;;;;;;5.25;4.05;;;;;;;;;;5037003;28;20049;-68
2023/08/15 16:13:22;;;;;;;4.22;3.42;;;;;;;;;;5034519;28;20045;-68
2023/08/15 16:15:48;;;;;;;6.22;4.07;;;;;;;;;;5017386;28;20669;-69
2023/08/15 16:18:14;;;;;;;7.65;4.50;;;;;;;;;;5040018;28;20534;-70
2023/08/15 16:20:39;;;;;;;5.63;4.05;;;;;;;;;;5025350;28;20418;-70
2023/08/15 16:23:05;;;;;;;13.40;4.28;;;;;;;;;;5037821;28;20041;-69
2023/08/15 16:25:30;;;;;;;5.13;4.45;;;;;;;;;;5037297;28;20053;-70
2023/08/15 16:27:57;;;;;;;5.25;4.15;;;;;;;;;;5039011;28;20461;-70
2023/08/15 16:30:22;;;;;;;7.40;4.50;;;;;;;;;;5037113;28;20052;-69
2023/08/15 16:32:48;;;;;;;4.72;3.45;;;;;;;;;;5036668;28;20044;-69
2023/08/15 16:35:14;;;;;;;7.20;4.35;;;;;;;;;;5035896;28;20055;-70
2023/08/15 16:37:39;;;;;;;6.20;4.40;;;;;;;;;;5019429;28;20100;-70
2023/08/15 16:40:06;;;;;;;9.15;4.82;;;;;;;;;;5019433;28;20037;-71
2023/08/15 16:42:31;;;;;;;6.43;3.92;;;;;;;;;;5036978;28;20163;-69
2023/08/15 16:44:56;;;;;;;7.05;4.82;;;;;;;;;;5038708;28;20486;-69
2023/08/15 16:47:22;;;;;;;5.70;4.68;;;;;;;;;;5034887;28;20041;-69
2023/08/15 16:49:47;;;;;;;6.00;4.60;;;;;;;;;;5039655;28;20055;-69
2023/08/15 16:52:13;;;;;;;7.03;4.82;;;;;;;;;;5042817;28;20829;-69
2023/08/15 16:54:38;;;;;;;7.18;5.05;;;;;;;;;;5024902;28;20784;-69
2023/08/15 16:57:04;;;;;;;7.18;4.63;;;;;;;;;;5042422;28;20607;-68
2023/08/15 16:59:29;;;;;;;5.45;4.60;;;;;;;;;;5026400;28;20045;-68
2023/08/15 17:01:54;;;;;;;12.77;5.32;;;;;;;;;;5042150;28;20546;-69
2023/08/15 17:04:20;;;;;;;5.78;4.72;;;;;;;;;;5042177;28;20037;-69
2023/08/15 17:06:45;;;;;;;8.38;3.83;;;;;;;;;;5042907;28;20484;-68
2023/08/15 17:09:11;;;;;;;4.40;3.92;;;;;;;;;;5042077;28;20045;-68
2023/08/15 17:11:36;;;;;;;11.77;4.53;;;;;;;;;;5041738;28;20044;-68
2023/08/15 17:33:15;;;;;;;8.85;4.50;;;;;;;;;;5027043;28;20524;-69
2023/08/15 17:35:42;;;;;;;5.65;4.40;;;;;;;;;;5041392;28;20037;-69
2023/08/15 17:38:08;;;;;;;6.88;5.00;;;;;;;;;;5045175;28;20041;-70
2023/08/15 17:40:34;;;;;;;8.13;4.80;;;;;;;;;;5043563;28;20049;-69
2023/08/15 17:43:00;;;;;;;6.20;4.53;;;;;;;;;;5057156;28;20395;-69
2023/08/15 17:45:26;;;;;;;6.38;5.03;;;;;;;;;;5047783;28;20060;-69
2023/08/15 17:47:51;;;;;;;9.63;4.95;;;;;;;;;;5048599;28;20060;-70
2023/08/15 17:50:17;;;;;;;5.22;4.68;;;;;;;;;;5048598;28;20037;-70
2023/08/15 17:52:42;;;;;;;4.80;3.97;;;;;;;;;;5055355;28;20044;-69
2023/08/15 18:03:46;;;;;;;5.82;4.15;;;;;;;;;;5047004;28;20680;-69
2023/08/15 18:06:12;;;;;;;6.15;3.95;;;;;;;;;;5029126;28;20049;-69
2023/08/15 18:08:38;;;;;;;4.57;4.07;;;;;;;;;;5039491;28;20118;-70
2023/08/15 18:11:03;;;;;;;6.65;3.80;;;;;;;;;;5043943;28;20490;-69
2023/08/15 18:13:29;;;;;;;7.60;3.97;;;;;;;;;;5021860;28;20053;-70
2023/08/15 18:15:54;;;;;;;5.05;3.97;;;;;;;;;;5041854;28;20044;-69
2023/08/15 18:18:20;;;;;;;6.07;4.90;;;;;;;;;;5007975;28;20098;-69